Time;durP1;ratioP1;P1;durP2;ratioP2;P2;SDS_P1;SDS_P2;PMS_P1;PMS_P2;Temp;Humidity;BMP_temperature;BMP_pressure;BME280_temperature;BME280_humidity;BME280_pressure;Samples;Min_cycle;Max_cycle;Signal;HPM_P1;HPM_P2
2022/01/27 00:04:07;;;;;;;39.30;23.73;;;;;;;;;;4995932;28;20568;-61
2022/01/27 00:06:34;;;;;;;41.63;24.40;;;;;;;;;;4986669;28;23239;-62
2022/01/27 00:09:15;;;;;;;38.13;23.43;;;;;;;;;;4980672;28;20193;-61
2022/01/27 00:11:44;;;;;;;36.67;24.30;;;;;;;;;;4982811;28;20208;-62
2022/01/27 00:14:11;;;;;;;40.27;24.60;;;;;;;;;;4975895;28;20275;-62
2022/01/27 00:16:41;;;;;;;37.63;24.23;;;;;;;;;;4980571;28;20354;-63
2022/01/27 00:19:07;;;;;;;37.17;23.70;;;;;;;;;;4979453;28;21946;-62
2022/01/27 00:21:33;;;;;;;40.53;24.20;;;;;;;;;;4962773;28;20687;-62
2022/01/27 00:23:59;;;;;;;39.43;23.80;;;;;;;;;;4979411;28;20239;-63
2022/01/27 00:26:25;;;;;;;42.83;24.17;;;;;;;;;;4980673;28;20209;-61
2022/01/27 00:28:51;;;;;;;38.30;24.07;;;;;;;;;;4979952;28;20946;-62
2022/01/27 00:31:17;;;;;;;38.27;23.90;;;;;;;;;;4981674;28;20299;-63
2022/01/27 00:33:44;;;;;;;41.03;24.63;;;;;;;;;;4964080;28;20197;-63
2022/01/27 00:36:10;;;;;;;41.63;23.27;;;;;;;;;;4981991;28;20304;-62
2022/01/27 00:38:35;;;;;;;38.80;23.53;;;;;;;;;;4976499;28;20194;-62
2022/01/27 00:41:01;;;;;;;40.70;24.03;;;;;;;;;;4995089;28;20204;-62
2022/01/27 00:43:27;;;;;;;41.53;23.77;;;;;;;;;;4994043;28;20203;-62
2022/01/27 00:45:54;;;;;;;40.47;23.87;;;;;;;;;;4980464;28;20454;-63
2022/01/27 00:48:20;;;;;;;43.93;24.50;;;;;;;;;;4977826;28;20947;-62
2022/01/27 00:50:55;;;;;;;43.17;23.70;;;;;;;;;;4953564;28;21772;-62
2022/01/27 00:55:47;;;;;;;42.63;23.43;;;;;;;;;;4975123;28;20340;-61
2022/01/27 00:58:47;;;;;;;44.07;23.77;;;;;;;;;;4979242;28;20284;-61
2022/01/27 01:01:16;;;;;;;42.73;23.17;;;;;;;;;;4978576;28;21939;-63
2022/01/27 01:03:45;;;;;;;40.23;22.70;;;;;;;;;;4980460;28;20190;-62
2022/01/27 01:09:27;;;;;;;39.83;22.93;;;;;;;;;;4960883;28;20307;-62
2022/01/27 01:12:00;;;;;;;44.47;24.07;;;;;;;;;;4977084;28;20232;-61
2022/01/27 01:16:59;;;;;;;46.47;23.77;;;;;;;;;;4977409;28;20259;-61
2022/01/27 01:29:25;;;;;;;42.93;23.30;;;;;;;;;;4959175;28;20673;-62
2022/01/27 01:30:22;;;;;;;41.53;24.00;;;;;;;;;;4978684;28;20257;-61
2022/01/27 01:32:54;;;;;;;46.60;24.33;;;;;;;;;;4971592;28;20188;-62
2022/01/27 01:35:27;;;;;;;47.10;24.60;;;;;;;;;;4973978;28;20218;-62
2022/01/27 01:37:54;;;;;;;44.40;23.90;;;;;;;;;;4979994;28;20426;-62
2022/01/27 01:40:20;;;;;;;44.47;23.77;;;;;;;;;;4963086;28;20193;-62
2022/01/27 01:42:46;;;;;;;43.50;23.40;;;;;;;;;;4978155;28;20457;-61
2022/01/27 01:45:13;;;;;;;45.97;23.27;;;;;;;;;;4964935;28;20843;-62
2022/01/27 01:47:39;;;;;;;48.03;23.43;;;;;;;;;;4982263;28;20477;-61
2022/01/27 01:50:05;;;;;;;43.23;22.60;;;;;;;;;;4961630;28;20685;-62
2022/01/27 01:52:31;;;;;;;44.57;24.17;;;;;;;;;;4977256;28;20211;-62
2022/01/27 01:54:57;;;;;;;43.37;22.30;;;;;;;;;;4978901;28;20796;-62
2022/01/27 01:57:23;;;;;;;42.37;22.50;;;;;;;;;;4977256;28;20201;-62
2022/01/27 01:59:49;;;;;;;51.50;24.90;;;;;;;;;;4979735;28;20694;-62
2022/01/27 02:02:15;;;;;;;40.80;22.17;;;;;;;;;;4978858;28;20224;-61
2022/01/27 02:04:41;;;;;;;41.70;22.60;;;;;;;;;;4981979;28;20322;-61
2022/01/27 02:07:17;;;;;;;49.17;23.43;;;;;;;;;;4979144;28;20197;-62
2022/01/27 02:18:03;;;;;;;44.20;21.07;;;;;;;;;;4966215;28;20192;-62
2022/01/27 02:20:29;;;;;;;43.20;22.37;;;;;;;;;;4979457;28;20209;-63
2022/01/27 02:22:55;;;;;;;46.17;23.07;;;;;;;;;;4977017;28;20654;-62
2022/01/27 02:25:21;;;;;;;43.57;21.97;;;;;;;;;;4975126;28;20190;-62
2022/01/27 02:27:47;;;;;;;43.53;22.27;;;;;;;;;;4975017;28;20672;-62
2022/01/27 02:30:13;;;;;;;39.27;22.70;;;;;;;;;;4977335;28;20518;-66
2022/01/27 02:32:39;;;;;;;36.93;21.07;;;;;;;;;;4974618;28;20197;-62
2022/01/27 02:35:05;;;;;;;40.60;20.93;;;;;;;;;;4976732;28;20264;-63
2022/01/27 02:37:31;;;;;;;40.07;21.47;;;;;;;;;;4980601;28;20200;-62
2022/01/27 02:39:57;;;;;;;38.70;21.87;;;;;;;;;;4980954;28;20622;-62
2022/01/27 02:42:41;;;;;;;39.70;20.63;;;;;;;;;;4983910;28;20624;-62
2022/01/27 02:45:08;;;;;;;41.03;21.57;;;;;;;;;;4988967;28;20801;-62
2022/01/27 02:47:34;;;;;;;39.30;21.73;;;;;;;;;;5000906;28;20662;-62
2022/01/27 02:50:00;;;;;;;38.07;21.00;;;;;;;;;;4996649;28;20201;-62
2022/01/27 02:52:26;;;;;;;36.60;20.90;;;;;;;;;;4985864;28;20208;-62
2022/01/27 02:54:52;;;;;;;42.77;22.37;;;;;;;;;;4981058;28;20232;-62
2022/01/27 02:57:19;;;;;;;39.47;21.17;;;;;;;;;;4983939;28;20197;-62
2022/01/27 02:59:45;;;;;;;36.43;20.13;;;;;;;;;;4977853;28;20264;-62
2022/01/27 03:02:11;;;;;;;38.67;20.47;;;;;;;;;;4967420;28;20197;-61
2022/01/27 03:04:37;;;;;;;36.00;20.07;;;;;;;;;;4981838;28;20511;-60
2022/01/27 03:07:04;;;;;;;36.10;20.47;;;;;;;;;;4969385;28;20193;-61
2022/01/27 03:09:30;;;;;;;38.10;20.17;;;;;;;;;;4982233;28;20559;-61
2022/01/27 03:12:00;;;;;;;39.03;20.93;;;;;;;;;;4966598;28;20197;-61
2022/01/27 03:14:26;;;;;;;36.97;21.13;;;;;;;;;;4985506;28;20225;-62
2022/01/27 03:16:59;;;;;;;38.97;21.50;;;;;;;;;;4994781;28;20347;-61
2022/01/27 03:19:25;;;;;;;33.73;19.73;;;;;;;;;;4984565;28;20208;-62
2022/01/27 03:21:52;;;;;;;39.37;21.17;;;;;;;;;;4963049;28;20343;-63
2022/01/27 03:24:18;;;;;;;38.93;20.53;;;;;;;;;;4982973;28;20192;-60
2022/01/27 03:26:45;;;;;;;37.63;20.77;;;;;;;;;;4984143;28;20661;-62
2022/01/27 03:29:11;;;;;;;33.23;18.80;;;;;;;;;;4991228;28;20884;-61
2022/01/27 03:31:37;;;;;;;38.53;20.53;;;;;;;;;;4987090;28;20997;-61
2022/01/27 03:34:03;;;;;;;35.47;19.93;;;;;;;;;;4984140;28;20204;-62
2022/01/27 03:36:29;;;;;;;37.03;20.13;;;;;;;;;;4988203;28;20705;-61
2022/01/27 03:38:55;;;;;;;35.30;19.87;;;;;;;;;;4961170;28;20189;-61
2022/01/27 03:41:22;;;;;;;33.97;19.60;;;;;;;;;;4984758;28;20232;-63
2022/01/27 03:43:49;;;;;;;38.83;20.80;;;;;;;;;;4979751;28;20280;-62
2022/01/27 03:46:15;;;;;;;33.97;19.87;;;;;;;;;;4984198;28;20244;-61
2022/01/27 03:48:41;;;;;;;37.37;20.57;;;;;;;;;;4987942;28;20206;-61
2022/01/27 03:51:07;;;;;;;39.23;19.83;;;;;;;;;;4997891;28;21590;-62
2022/01/27 03:53:33;;;;;;;37.43;19.13;;;;;;;;;;4994650;28;20202;-61
2022/01/27 03:55:58;;;;;;;39.37;20.43;;;;;;;;;;4966758;28;20206;-60
2022/01/27 03:58:24;;;;;;;37.63;20.63;;;;;;;;;;4961680;28;20214;-62
2022/01/27 04:00:50;;;;;;;37.23;19.40;;;;;;;;;;4978363;28;20189;-62
2022/01/27 04:03:18;;;;;;;40.60;20.80;;;;;;;;;;4979312;28;20206;-61
2022/01/27 04:05:55;;;;;;;36.37;20.07;;;;;;;;;;4975458;28;20263;-63
2022/01/27 04:08:21;;;;;;;41.33;21.93;;;;;;;;;;4975960;28;20296;-62
2022/01/27 04:10:47;;;;;;;34.43;20.33;;;;;;;;;;4961981;28;20562;-62
2022/01/27 04:13:13;;;;;;;36.90;20.53;;;;;;;;;;4978245;28;20637;-62
2022/01/27 04:15:40;;;;;;;39.63;20.77;;;;;;;;;;4981515;28;20209;-63
2022/01/27 04:18:06;;;;;;;40.67;20.40;;;;;;;;;;4977729;28;20194;-62
2022/01/27 04:20:32;;;;;;;43.20;21.17;;;;;;;;;;4982078;28;20675;-61
2022/01/27 04:22:58;;;;;;;37.70;20.30;;;;;;;;;;4978621;28;20237;-62
2022/01/27 04:25:23;;;;;;;38.43;20.20;;;;;;;;;;4980402;28;20194;-62
2022/01/27 04:27:54;;;;;;;37.37;21.13;;;;;;;;;;4979894;28;20379;-60
2022/01/27 04:30:22;;;;;;;38.97;21.60;;;;;;;;;;4983690;28;20190;-61
2022/01/27 04:33:00;;;;;;;39.43;20.30;;;;;;;;;;4979115;28;20258;-61
2022/01/27 04:35:29;;;;;;;37.27;22.00;;;;;;;;;;4983032;28;20213;-63
2022/01/27 04:40:55;;;;;;;36.40;21.30;;;;;;;;;;4982845;28;20201;-61
2022/01/27 04:43:31;;;;;;;39.20;20.73;;;;;;;;;;4980211;28;20248;-61
2022/01/27 04:48:57;;;;;;;37.17;20.80;;;;;;;;;;4964104;28;20284;-61
2022/01/27 04:51:24;;;;;;;36.77;20.67;;;;;;;;;;4998233;28;20575;-62
2022/01/27 04:54:28;;;;;;;37.13;20.63;;;;;;;;;;4984680;28;20225;-61
2022/01/27 04:56:42;;;;;;;36.97;20.50;;;;;;;;;;4976864;28;20832;-62
2022/01/27 04:59:19;;;;;;;36.50;20.40;;;;;;;;;;4981050;28;20197;-61
2022/01/27 05:01:51;;;;;;;37.30;21.47;;;;;;;;;;4982020;28;20250;-63
2022/01/27 05:04:19;;;;;;;40.17;21.63;;;;;;;;;;4980045;28;20221;-61
2022/01/27 05:06:47;;;;;;;40.40;21.37;;;;;;;;;;4980045;28;20684;-62
2022/01/27 05:09:13;;;;;;;36.70;20.90;;;;;;;;;;4976715;28;20210;-63
2022/01/27 05:11:48;;;;;;;38.10;20.10;;;;;;;;;;4977790;28;20190;-62
2022/01/27 05:14:23;;;;;;;37.13;20.67;;;;;;;;;;4983393;28;20196;-60
2022/01/27 05:16:49;;;;;;;37.00;21.43;;;;;;;;;;4980248;28;20244;-61
2022/01/27 05:19:15;;;;;;;34.90;19.87;;;;;;;;;;4982980;28;20240;-61
2022/01/27 05:21:41;;;;;;;33.37;19.63;;;;;;;;;;4980439;28;20245;-62
2022/01/27 05:24:07;;;;;;;35.30;20.03;;;;;;;;;;4973658;28;20327;-61
2022/01/27 05:26:33;;;;;;;32.63;18.90;;;;;;;;;;4974150;28;20210;-61
2022/01/27 05:28:59;;;;;;;29.63;18.63;;;;;;;;;;4970980;28;20202;-62
2022/01/27 05:31:25;;;;;;;32.37;19.10;;;;;;;;;;4973718;28;20208;-62
2022/01/27 05:33:51;;;;;;;37.17;19.37;;;;;;;;;;4982420;28;20194;-62
2022/01/27 05:36:17;;;;;;;32.73;18.80;;;;;;;;;;4953071;28;20213;-62
2022/01/27 05:38:43;;;;;;;29.60;18.33;;;;;;;;;;4973149;28;20728;-62
2022/01/27 05:41:09;;;;;;;31.33;18.17;;;;;;;;;;4975402;28;20197;-62
2022/01/27 05:43:35;;;;;;;31.20;18.23;;;;;;;;;;4968519;28;20272;-62
2022/01/27 05:46:01;;;;;;;30.33;18.70;;;;;;;;;;4955399;28;20777;-62
2022/01/27 05:48:27;;;;;;;29.87;17.60;;;;;;;;;;4976122;28;20255;-62
2022/01/27 05:50:53;;;;;;;35.40;18.67;;;;;;;;;;4976818;28;20440;-63
2022/01/27 05:53:19;;;;;;;28.83;16.77;;;;;;;;;;4972890;28;20768;-63
2022/01/27 05:55:45;;;;;;;25.90;15.97;;;;;;;;;;4971859;28;20224;-63
2022/01/27 05:58:11;;;;;;;27.70;17.37;;;;;;;;;;4969356;28;22106;-62
2022/01/27 06:00:37;;;;;;;29.93;16.23;;;;;;;;;;4967440;28;20304;-62
2022/01/27 06:03:03;;;;;;;28.77;16.90;;;;;;;;;;4973232;28;20308;-62
2022/01/27 06:05:29;;;;;;;31.73;17.57;;;;;;;;;;4956500;28;20388;-62
2022/01/27 06:07:55;;;;;;;29.20;17.07;;;;;;;;;;4957155;28;20198;-62
2022/01/27 06:10:20;;;;;;;29.17;18.40;;;;;;;;;;4958960;28;20300;-62
2022/01/27 06:12:56;;;;;;;29.83;17.30;;;;;;;;;;4966548;28;20457;-70
2022/01/27 06:15:21;;;;;;;30.63;16.13;;;;;;;;;;4965976;28;20985;-62
2022/01/27 06:17:47;;;;;;;33.57;16.10;;;;;;;;;;4967415;28;20187;-62
2022/01/27 06:20:14;;;;;;;29.70;16.70;;;;;;;;;;4965245;28;20216;-62
2022/01/27 06:22:40;;;;;;;30.03;16.60;;;;;;;;;;4975560;28;20331;-63
2022/01/27 06:25:06;;;;;;;28.53;16.60;;;;;;;;;;4974337;28;20200;-63
2022/01/27 06:27:32;;;;;;;26.70;16.50;;;;;;;;;;4975002;28;20691;-62
2022/01/27 06:29:58;;;;;;;24.87;15.87;;;;;;;;;;4982657;28;20202;-63
2022/01/27 06:32:24;;;;;;;29.83;16.93;;;;;;;;;;4981788;28;20201;-62
2022/01/27 06:34:50;;;;;;;26.80;15.93;;;;;;;;;;4980328;28;20196;-63
2022/01/27 06:37:16;;;;;;;25.77;15.80;;;;;;;;;;4971142;28;20193;-63
2022/01/27 06:39:42;;;;;;;27.73;15.77;;;;;;;;;;4959891;28;20193;-62
2022/01/27 06:42:08;;;;;;;29.03;16.33;;;;;;;;;;4977555;28;20227;-63
2022/01/27 06:44:37;;;;;;;27.17;17.23;;;;;;;;;;4975624;28;20209;-62
2022/01/27 06:47:03;;;;;;;29.37;17.47;;;;;;;;;;4975695;28;20193;-62
2022/01/27 06:49:29;;;;;;;27.70;16.57;;;;;;;;;;4972593;28;20194;-62
2022/01/27 06:51:55;;;;;;;24.97;15.63;;;;;;;;;;4976945;28;20212;-64
2022/01/27 06:54:20;;;;;;;28.87;16.00;;;;;;;;;;4975607;28;20229;-64
2022/01/27 06:56:46;;;;;;;25.80;15.53;;;;;;;;;;4981393;28;20652;-64
2022/01/27 06:59:12;;;;;;;26.50;16.03;;;;;;;;;;4970698;28;20273;-62
2022/01/27 07:01:39;;;;;;;25.73;16.17;;;;;;;;;;4969733;28;20283;-62
2022/01/27 07:04:05;;;;;;;28.47;15.33;;;;;;;;;;4973547;28;20285;-63
2022/01/27 07:06:32;;;;;;;26.67;15.23;;;;;;;;;;4970059;28;20216;-63
2022/01/27 07:08:58;;;;;;;25.53;15.60;;;;;;;;;;4963405;28;20848;-62
2022/01/27 07:11:24;;;;;;;27.60;15.17;;;;;;;;;;4978972;28;20538;-62
2022/01/27 07:13:50;;;;;;;24.93;15.37;;;;;;;;;;4971927;28;20202;-63
2022/01/27 07:16:16;;;;;;;28.70;15.80;;;;;;;;;;4964236;28;20911;-63
2022/01/27 07:18:42;;;;;;;25.03;15.13;;;;;;;;;;4960482;28;20232;-64
2022/01/27 07:21:08;;;;;;;27.13;15.90;;;;;;;;;;4967241;28;20234;-63
2022/01/27 07:23:34;;;;;;;27.93;16.07;;;;;;;;;;4972066;28;20241;-63
2022/01/27 07:26:00;;;;;;;29.30;16.30;;;;;;;;;;4975686;28;20194;-62
2022/01/27 07:28:26;;;;;;;27.10;16.13;;;;;;;;;;4980629;28;20197;-62
2022/01/27 07:30:52;;;;;;;26.03;15.80;;;;;;;;;;4982512;28;20248;-64
2022/01/27 07:33:18;;;;;;;28.47;16.07;;;;;;;;;;4986303;28;21304;-63
2022/01/27 07:35:44;;;;;;;29.63;16.80;;;;;;;;;;4977261;28;20300;-63
2022/01/27 07:38:10;;;;;;;27.70;15.63;;;;;;;;;;4966922;28;20198;-63
2022/01/27 07:40:36;;;;;;;28.57;16.80;;;;;;;;;;4978693;28;20951;-63
2022/01/27 07:43:02;;;;;;;26.47;15.90;;;;;;;;;;4944688;28;22346;-63
2022/01/27 07:45:27;;;;;;;26.87;16.37;;;;;;;;;;4967990;28;20198;-62
2022/01/27 07:47:53;;;;;;;27.93;16.50;;;;;;;;;;4962150;28;20209;-62
2022/01/27 07:50:21;;;;;;;30.13;16.80;;;;;;;;;;4966914;28;20712;-62
2022/01/27 07:52:47;;;;;;;30.83;17.63;;;;;;;;;;4963408;28;20786;-64
2022/01/27 07:55:13;;;;;;;26.80;15.83;;;;;;;;;;4951538;28;20296;-64
2022/01/27 07:57:39;;;;;;;27.77;16.10;;;;;;;;;;4964510;28;20240;-64
2022/01/27 08:00:05;;;;;;;30.00;15.43;;;;;;;;;;4961476;28;20194;-64
2022/01/27 08:02:31;;;;;;;31.87;16.43;;;;;;;;;;4978114;28;20201;-62
2022/01/27 08:04:57;;;;;;;26.50;16.30;;;;;;;;;;4987441;28;20225;-63
2022/01/27 08:07:23;;;;;;;26.93;16.40;;;;;;;;;;4973926;28;20201;-63
2022/01/27 08:09:49;;;;;;;27.23;16.60;;;;;;;;;;4972562;28;20190;-63
2022/01/27 08:12:15;;;;;;;26.83;16.07;;;;;;;;;;4967581;28;20644;-64
2022/01/27 08:14:41;;;;;;;27.63;16.20;;;;;;;;;;4968928;28;20193;-64
2022/01/27 08:17:07;;;;;;;29.97;17.20;;;;;;;;;;4964720;28;20332;-63
2022/01/27 08:19:33;;;;;;;30.23;17.00;;;;;;;;;;4976649;28;21129;-63
2022/01/27 08:21:59;;;;;;;27.47;16.67;;;;;;;;;;4954907;28;20607;-63
2022/01/27 08:24:25;;;;;;;28.87;17.30;;;;;;;;;;4969694;28;20281;-63
2022/01/27 08:26:57;;;;;;;32.17;17.47;;;;;;;;;;4968309;28;22324;-63
2022/01/27 08:29:31;;;;;;;31.00;17.33;;;;;;;;;;4965875;28;20194;-62
2022/01/27 08:32:01;;;;;;;32.43;18.63;;;;;;;;;;4962989;28;20208;-64
2022/01/27 08:34:33;;;;;;;29.77;16.13;;;;;;;;;;4974103;28;20357;-63
2022/01/27 08:36:59;;;;;;;32.30;17.90;;;;;;;;;;4970464;28;20238;-64
2022/01/27 08:39:25;;;;;;;35.87;19.50;;;;;;;;;;4983643;28;20280;-64
2022/01/27 08:41:51;;;;;;;34.90;18.13;;;;;;;;;;4971022;28;20193;-64
2022/01/27 08:44:17;;;;;;;29.13;18.03;;;;;;;;;;4969160;28;20185;-62
2022/01/27 08:46:43;;;;;;;30.57;17.93;;;;;;;;;;4949198;28;20205;-62
2022/01/27 08:49:09;;;;;;;33.73;19.57;;;;;;;;;;4969978;28;20228;-62
2022/01/27 08:51:36;;;;;;;30.53;17.40;;;;;;;;;;4952578;28;21944;-63
2022/01/27 08:54:02;;;;;;;31.37;19.00;;;;;;;;;;4963532;28;20200;-63
2022/01/27 08:56:28;;;;;;;30.00;17.47;;;;;;;;;;4969006;28;20222;-63
2022/01/27 08:58:56;;;;;;;31.97;17.90;;;;;;;;;;4966167;28;20837;-63
2022/01/27 09:01:24;;;;;;;32.80;18.43;;;;;;;;;;4965112;28;20194;-63
2022/01/27 09:03:50;;;;;;;32.80;18.40;;;;;;;;;;4960711;28;20193;-64
2022/01/27 09:06:18;;;;;;;34.93;18.47;;;;;;;;;;4952356;28;20206;-63
2022/01/27 09:08:44;;;;;;;31.80;17.67;;;;;;;;;;4943958;28;20212;-62
2022/01/27 09:11:10;;;;;;;33.40;18.77;;;;;;;;;;4965146;28;22295;-63
2022/01/27 09:13:37;;;;;;;37.63;19.23;;;;;;;;;;4969301;28;20198;-63
2022/01/27 09:16:04;;;;;;;35.10;18.67;;;;;;;;;;4977878;28;20283;-63
2022/01/27 09:18:30;;;;;;;30.77;18.23;;;;;;;;;;4969915;28;20201;-64
2022/01/27 09:20:58;;;;;;;33.03;19.53;;;;;;;;;;4971913;28;20486;-62
2022/01/27 09:23:25;;;;;;;32.17;18.93;;;;;;;;;;4973401;28;20213;-63
2022/01/27 09:25:55;;;;;;;35.30;19.47;;;;;;;;;;4962719;28;20842;-63
2022/01/27 09:28:21;;;;;;;33.83;18.00;;;;;;;;;;4964348;28;20232;-63
2022/01/27 09:30:47;;;;;;;34.97;19.33;;;;;;;;;;4986780;28;20194;-63
2022/01/27 09:33:13;;;;;;;31.07;18.00;;;;;;;;;;4984875;28;20202;-64
2022/01/27 09:35:39;;;;;;;34.17;17.97;;;;;;;;;;4968021;28;20233;-63
2022/01/27 09:38:05;;;;;;;33.17;18.07;;;;;;;;;;4950474;28;20233;-63
2022/01/27 09:40:33;;;;;;;31.97;17.60;;;;;;;;;;4965766;28;20299;-64
2022/01/27 09:43:00;;;;;;;33.33;18.60;;;;;;;;;;4966785;28;20313;-62
2022/01/27 09:45:27;;;;;;;34.33;18.03;;;;;;;;;;4958561;28;20573;-64
2022/01/27 09:48:04;;;;;;;29.83;18.10;;;;;;;;;;4941500;28;20693;-64
2022/01/27 09:53:23;;;;;;;29.23;17.77;;;;;;;;;;4948873;28;20766;-63
2022/01/27 09:55:49;;;;;;;31.70;18.60;;;;;;;;;;4965762;28;20232;-63
2022/01/27 09:58:14;;;;;;;30.80;18.17;;;;;;;;;;4954441;28;20542;-64
2022/01/27 10:00:40;;;;;;;29.33;17.73;;;;;;;;;;4953859;28;20202;-64
2022/01/27 10:03:07;;;;;;;28.40;17.33;;;;;;;;;;4940642;28;21029;-63
2022/01/27 10:05:33;;;;;;;31.87;17.10;;;;;;;;;;4975546;28;20190;-63
2022/01/27 10:08:19;;;;;;;29.30;17.23;;;;;;;;;;4968886;28;20193;-64
2022/01/27 10:10:46;;;;;;;28.57;17.40;;;;;;;;;;4972045;28;20199;-63
2022/01/27 10:13:12;;;;;;;25.57;16.57;;;;;;;;;;4944418;28;20193;-63
2022/01/27 10:15:39;;;;;;;26.57;17.00;;;;;;;;;;4948570;28;20268;-63
2022/01/27 10:18:08;;;;;;;23.73;16.07;;;;;;;;;;4967151;28;21045;-63
2022/01/27 10:20:35;;;;;;;27.87;17.13;;;;;;;;;;4961061;28;20816;-63
2022/01/27 10:23:16;;;;;;;29.20;17.00;;;;;;;;;;4966702;28;21875;-63
2022/01/27 10:25:46;;;;;;;26.17;16.60;;;;;;;;;;4973279;28;20201;-63
2022/01/27 10:28:25;;;;;;;29.73;17.07;;;;;;;;;;4977432;28;20726;-64
2022/01/27 10:31:08;;;;;;;24.17;15.77;;;;;;;;;;4952483;28;20288;-64
2022/01/27 10:33:44;;;;;;;25.20;15.37;;;;;;;;;;4970225;28;20201;-63
2022/01/27 10:36:16;;;;;;;26.93;16.13;;;;;;;;;;4971742;28;20213;-64
2022/01/27 10:38:42;;;;;;;23.03;15.40;;;;;;;;;;4980483;28;20194;-65
2022/01/27 10:41:08;;;;;;;27.97;15.63;;;;;;;;;;4974560;28;20197;-63
2022/01/27 10:43:34;;;;;;;23.00;14.93;;;;;;;;;;4962980;28;20194;-63
2022/01/27 10:46:08;;;;;;;23.80;14.63;;;;;;;;;;4968641;28;20247;-64
2022/01/27 10:48:36;;;;;;;26.03;14.47;;;;;;;;;;4966471;28;20201;-64
2022/01/27 10:51:13;;;;;;;23.87;14.90;;;;;;;;;;4960488;28;21505;-63
2022/01/27 10:53:49;;;;;;;20.67;14.63;;;;;;;;;;4951842;28;20181;-63
2022/01/27 10:56:15;;;;;;;23.83;15.47;;;;;;;;;;4952671;28;22720;-64
2022/01/27 10:58:42;;;;;;;23.03;15.43;;;;;;;;;;4947074;28;20193;-63
2022/01/27 11:01:08;;;;;;;23.40;15.67;;;;;;;;;;4956963;28;20189;-65
2022/01/27 11:03:35;;;;;;;24.90;15.23;;;;;;;;;;4973682;28;21142;-63
2022/01/27 11:06:06;;;;;;;23.10;15.50;;;;;;;;;;4979227;28;20198;-63
2022/01/27 11:08:32;;;;;;;22.53;15.27;;;;;;;;;;4981607;28;20889;-62
2022/01/27 11:10:58;;;;;;;24.53;14.93;;;;;;;;;;4971821;28;20247;-64
2022/01/27 11:13:26;;;;;;;25.17;15.07;;;;;;;;;;4985461;28;20295;-63
2022/01/27 11:15:55;;;;;;;20.93;14.43;;;;;;;;;;4985697;28;20702;-63
2022/01/27 11:18:23;;;;;;;22.80;14.87;;;;;;;;;;4981524;28;20940;-64
2022/01/27 11:21:01;;;;;;;20.57;13.87;;;;;;;;;;4960673;28;20213;-63
2022/01/27 11:23:48;;;;;;;18.60;13.17;;;;;;;;;;4982162;28;20197;-63
2022/01/27 11:26:16;;;;;;;18.83;13.00;;;;;;;;;;4968285;28;20675;-63
2022/01/27 11:28:42;;;;;;;19.83;13.27;;;;;;;;;;4980995;28;20202;-63
2022/01/27 11:31:27;;;;;;;19.57;13.47;;;;;;;;;;4981506;28;21405;-63
2022/01/27 11:34:00;;;;;;;17.50;12.93;;;;;;;;;;4980573;28;20212;-64
2022/01/27 11:36:26;;;;;;;20.23;13.30;;;;;;;;;;4961480;28;20765;-63
2022/01/27 11:38:52;;;;;;;19.77;13.13;;;;;;;;;;4965727;28;20186;-64
2022/01/27 11:41:37;;;;;;;17.07;12.00;;;;;;;;;;4979430;28;20224;-63
2022/01/27 11:44:22;;;;;;;17.70;12.67;;;;;;;;;;4980650;28;20797;-62
2022/01/27 11:47:17;;;;;;;16.63;11.47;;;;;;;;;;4980856;28;20197;-64
2022/01/27 11:49:58;;;;;;;18.77;11.67;;;;;;;;;;4981372;28;20300;-63
2022/01/27 11:52:30;;;;;;;16.93;11.30;;;;;;;;;;4981535;28;20260;-63
2022/01/27 11:54:57;;;;;;;15.97;11.87;;;;;;;;;;4968674;28;21276;-63
2022/01/27 11:57:59;;;;;;;16.30;11.10;;;;;;;;;;4981425;28;20866;-64
2022/01/27 12:00:26;;;;;;;17.57;11.50;;;;;;;;;;4902820;29;20272;-63
2022/01/27 12:03:01;;;;;;;16.73;11.57;;;;;;;;;;4955581;28;20206;-63
2022/01/27 12:05:28;;;;;;;14.87;11.00;;;;;;;;;;4983393;28;20201;-63
2022/01/27 12:08:09;;;;;;;18.07;11.33;;;;;;;;;;4965180;28;20209;-64
2022/01/27 12:10:46;;;;;;;14.90;11.17;;;;;;;;;;4980278;28;20334;-63
2022/01/27 12:13:34;;;;;;;15.20;11.10;;;;;;;;;;4979181;28;20189;-64
2022/01/27 12:16:23;;;;;;;15.33;11.60;;;;;;;;;;4979939;28;20228;-63
2022/01/27 12:18:59;;;;;;;15.23;11.13;;;;;;;;;;4982412;28;20202;-63
2022/01/27 12:21:28;;;;;;;15.13;10.90;;;;;;;;;;4980152;28;20240;-63
2022/01/27 12:24:13;;;;;;;14.57;10.90;;;;;;;;;;4980408;28;20212;-62
2022/01/27 12:26:58;;;;;;;12.33;10.73;;;;;;;;;;4976113;28;20609;-67
2022/01/27 12:29:28;;;;;;;14.70;10.80;;;;;;;;;;4974540;28;20201;-63
2022/01/27 12:31:54;;;;;;;15.70;10.90;;;;;;;;;;4974014;28;20416;-63
2022/01/27 12:34:20;;;;;;;17.87;11.27;;;;;;;;;;4974931;28;20225;-63
2022/01/27 12:37:13;;;;;;;14.47;10.13;;;;;;;;;;4975988;28;20213;-64
2022/01/27 12:39:39;;;;;;;16.03;11.17;;;;;;;;;;4976550;28;20205;-64
2022/01/27 12:42:06;;;;;;;16.10;10.97;;;;;;;;;;4973020;28;20198;-64
2022/01/27 12:44:33;;;;;;;14.30;11.00;;;;;;;;;;4977535;28;20635;-64
2022/01/27 12:47:06;;;;;;;17.63;10.93;;;;;;;;;;4972052;28;20647;-64
2022/01/27 12:49:40;;;;;;;13.67;10.53;;;;;;;;;;4981212;28;20559;-64
2022/01/27 12:52:08;;;;;;;12.83;9.60;;;;;;;;;;4982312;28;20197;-63
2022/01/27 12:54:35;;;;;;;14.37;10.47;;;;;;;;;;4996557;28;20344;-63
2022/01/27 12:57:01;;;;;;;13.87;10.40;;;;;;;;;;4993326;28;20548;-63
2022/01/27 12:59:37;;;;;;;13.97;10.13;;;;;;;;;;4977365;28;20278;-63
2022/01/27 13:02:04;;;;;;;14.47;10.00;;;;;;;;;;4965329;28;20189;-63
2022/01/27 13:04:31;;;;;;;14.03;10.73;;;;;;;;;;4979481;28;20721;-63
2022/01/27 13:06:57;;;;;;;14.67;10.80;;;;;;;;;;4980286;28;20190;-62
2022/01/27 13:09:23;;;;;;;15.73;10.23;;;;;;;;;;4976346;28;20205;-63
2022/01/27 13:11:52;;;;;;;12.90;10.30;;;;;;;;;;4979860;28;20584;-62
2022/01/27 13:14:18;;;;;;;13.37;9.97;;;;;;;;;;4978206;28;20667;-65
2022/01/27 13:16:49;;;;;;;13.67;9.87;;;;;;;;;;4977449;28;20248;-64
2022/01/27 13:19:26;;;;;;;13.33;9.40;;;;;;;;;;4980056;28;20289;-64
2022/01/27 13:22:02;;;;;;;14.57;9.43;;;;;;;;;;4961302;28;20256;-64
2022/01/27 13:24:31;;;;;;;9.93;8.23;;;;;;;;;;4982537;28;20297;-63
2022/01/27 13:27:11;;;;;;;13.80;9.33;;;;;;;;;;4978077;28;20233;-63
2022/01/27 13:29:44;;;;;;;11.60;8.50;;;;;;;;;;4979449;28;20277;-63
2022/01/27 13:32:10;;;;;;;10.53;8.10;;;;;;;;;;4963162;28;20344;-62
2022/01/27 13:34:40;;;;;;;11.90;8.67;;;;;;;;;;4978858;28;20331;-63
2022/01/27 13:37:06;;;;;;;11.20;8.03;;;;;;;;;;4978657;28;21605;-63
2022/01/27 13:42:08;;;;;;;13.70;9.10;;;;;;;;;;4958856;28;20706;-62
2022/01/27 13:44:33;;;;;;;11.50;8.53;;;;;;;;;;4973776;28;20259;-63
2022/01/27 13:47:03;;;;;;;9.63;8.07;;;;;;;;;;4965999;28;20805;-62
2022/01/27 13:49:32;;;;;;;13.03;8.83;;;;;;;;;;4967921;28;20210;-63
2022/01/27 13:51:58;;;;;;;11.80;8.57;;;;;;;;;;4958024;28;20746;-63
2022/01/27 13:54:30;;;;;;;10.23;8.23;;;;;;;;;;4979541;28;20624;-62
2022/01/27 13:56:55;;;;;;;15.80;9.43;;;;;;;;;;4990104;28;20688;-65
2022/01/27 13:59:28;;;;;;;13.00;9.40;;;;;;;;;;4976545;28;20221;-61
2022/01/27 14:02:12;;;;;;;13.73;9.40;;;;;;;;;;4971381;28;20190;-63
2022/01/27 14:04:45;;;;;;;15.27;11.10;;;;;;;;;;4972952;28;20201;-64
2022/01/27 14:07:11;;;;;;;16.73;10.43;;;;;;;;;;4958906;28;20194;-64
2022/01/27 14:09:40;;;;;;;16.03;10.67;;;;;;;;;;4966345;28;20693;-64
2022/01/27 14:12:06;;;;;;;14.50;10.63;;;;;;;;;;4974130;28;20201;-63
2022/01/27 14:14:46;;;;;;;16.70;12.07;;;;;;;;;;4968033;28;20202;-64
2022/01/27 14:17:19;;;;;;;15.67;12.03;;;;;;;;;;4977004;28;20213;-63
2022/01/27 14:19:45;;;;;;;16.57;11.70;;;;;;;;;;4977088;28;21069;-64
2022/01/27 14:22:20;;;;;;;12.77;11.07;;;;;;;;;;4978413;28;20234;-63
2022/01/27 14:25:10;;;;;;;16.07;12.00;;;;;;;;;;4977726;28;20213;-64
2022/01/27 14:27:37;;;;;;;15.23;11.50;;;;;;;;;;4977683;28;20197;-64
2022/01/27 14:30:04;;;;;;;15.53;11.67;;;;;;;;;;4978888;28;20271;-63
2022/01/27 14:32:31;;;;;;;14.17;11.77;;;;;;;;;;4976969;28;20674;-66
2022/01/27 14:34:57;;;;;;;13.60;10.53;;;;;;;;;;4978837;28;20194;-67
2022/01/27 14:37:23;;;;;;;14.80;11.60;;;;;;;;;;4963402;28;20193;-66
2022/01/27 14:39:49;;;;;;;15.57;11.87;;;;;;;;;;4980620;28;20570;-67
2022/01/27 14:42:18;;;;;;;16.63;11.77;;;;;;;;;;4978482;28;20197;-68
2022/01/27 14:44:44;;;;;;;16.53;11.83;;;;;;;;;;4955967;28;20572;-66
2022/01/27 14:47:10;;;;;;;16.63;12.43;;;;;;;;;;4970699;28;20217;-63
2022/01/27 14:49:40;;;;;;;14.30;12.23;;;;;;;;;;4975706;28;20189;-64
2022/01/27 14:52:11;;;;;;;15.40;12.37;;;;;;;;;;4976799;28;20231;-63
2022/01/27 14:54:37;;;;;;;18.67;13.00;;;;;;;;;;4971007;28;20197;-64
2022/01/27 14:57:03;;;;;;;17.50;13.40;;;;;;;;;;4991250;28;20711;-64
2022/01/27 14:59:29;;;;;;;15.47;12.57;;;;;;;;;;4989956;28;20191;-63
2022/01/27 15:01:55;;;;;;;16.63;13.37;;;;;;;;;;4964398;28;20919;-64
2022/01/27 15:04:21;;;;;;;16.17;13.33;;;;;;;;;;4975000;28;20229;-62
2022/01/27 15:06:48;;;;;;;16.90;13.50;;;;;;;;;;4971653;28;20936;-63